Ana Sayfa
METAR-TAF:

METAR-TAF

Havaalanları :

Air Force Base Langebaanweg

Langebaan, Güney Afrika

Enlem: 32-58-08S, Boylam: 018-09-55E, yükseklik: 33 m

Güncel hava durumu gözlemi

Rapor saat 22:00 UTC de 1 saat ve 9 dakika önce yapıldı.
Rüzgar güney/güneybatıdan 8 kt
Sıcaklık 17°C
Nem 72%
Basınç 1017 hPa

METAR: FALW 272200Z AUTO 21008KT //// // ////// 17/12 Q1017

Saat: 01:09 (23:09 UTC)


TAF: eksik

4.000'den fazla havaalanı için hava durumu gözlemleri ve tahminleri (METAR ve TAF raporları).

Kullanılabilir istasyonlar harita üzerinde sarı ve kırmızı noktalarla gösterilir.

İstasyonun adını görmek için fareyi noktanın üzerinde gezdirin.

Sonrasında hava gözlem ve tahminlerini görmek için tıklayın.

Haritayı değiştirmek için: yaklaştırmak için siyah artı işaretli yeşil düğmeye ve uzaklaştırmak için de eksi işaretli düğmeye hızla tıklayın; bitişik haritalar için yeşil okları kullanın.


METAR-TAF: